Terminal Aerodrome Forecast
Issued by NWS Binghamton, NY

Home | Current Version | Previous Version | Text Only | Print | Product List | Glossary On
Versions: 1 2 3 4 5 6 7 8 9 10 11 12 13 14 15 16 17 18
000
FTUS41 KBGM 290531
TAFAVP
TAF
KAVP 290531Z 2906/3006 VRB03KT 6SM -SHRA OVC150
     FM290800 00000KT 5SM -SHRA BR SCT050 OVC100
      TEMPO 2910/2914 2SM -SHRA BR BKN025
     FM291400 35008KT P6SM -SHRA OVC050
      TEMPO 2918/2920 4SM -SHRA OVC040
     FM300300 VRB03KT P6SM SCT060 BKN100=

USA.gov is the U.S. government's official web portal to all federal, state and local government web resources and services.